Airfield :
LOGIN :

Register | Disclaimer

   EN    FR    IT 

 










Legend :    VFR   Marginal VFR   IFR   Intensive IFR   Very Intensive IFR
Visi :
Ceiling :
>= 8 km
>= 3000ft
5 to 8 km
1000 to 3000 ft
1500m to 5 km
500 to 1000 ft
800 to 1500m
200 to 500 ft
< 800m
< 200 ft
Symbols :   Thunderstorms  Fog  Heavy snow  Heavy precipitations  Wind > 20 kt
SIGMETs :     Misc.  Thunderstorms  Icing  Turbulence  Mountain Waves  Volcanic Ashes






- Airport Elevation : 154 ft
- IATA code : SZZ


EPSC - Szczecin Goleniow

CURRENT METAR :
  • 250430Z 13002KT 6000 NSC 10/09 Q1012

EXPIRED METARs :
  • 250400Z 11003KT 1500 BR NSC 08/07 Q1012
  • 250330Z 11004KT 0600 R31/0400D FG FEW000 06/05 Q1012
  • 250300Z 13004KT 0200 R31/0450N FG NSC 07/07 Q1012
  • 250230Z VRB01KT 0450 R31/1000D FG NSC 07/07 Q1011
  • 250200Z 11003KT 0250 R31/0550U FG NSC 07/07 Q1012

TAF AMD TAF EPSC
Valid from the 25 at 02:00 until the 26 at 00:00 UTC


250259Z 2502/2524 VRB03KT 0200 FG NSC
BECMG 2504/2507 CAVOK
TEMPO 2509/2520 26010KT -SHRA BKN035CB
PROB40
TEMPO 2512/2517 VRB15G25KT 4000 TSRA



MET'MAP, your aeronautical weather chart ! - Copyright ORBIFLY December 2007 - Disclaimer

ORBIFLY MET'MAP TEAM :

Programming & Development : Alexandra Zaïnal
Original concept : Baudouin d'Aumeries
Technical & hardware support : Manuel Goepfert
Assistance : Marc-Olivier Méhu

Contact : metmap@orbifly.com




SOURCES & CREDITS :

   NOAA